createdAt,value
2022-08-12T00:02:03.811Z,102484.69
2022-08-12T00:04:53.498Z,102478.75
2022-08-12T00:07:42.385Z,102490.25
2022-08-12T00:10:28.595Z,102475.59
2022-08-12T00:13:15.551Z,102476.66
2022-08-12T00:16:03.605Z,102496.94
2022-08-12T00:18:49.455Z,102492.66
2022-08-12T00:21:39.167Z,102490.03
2022-08-12T00:24:27.858Z,102496.34
2022-08-12T00:27:15.403Z,102492.06
2022-08-12T00:30:03.237Z,102495.59
2022-08-12T00:32:56.820Z,102500.06
2022-08-12T00:35:44.349Z,102495.81
2022-08-12T00:38:32.991Z,102489.53
2022-08-12T00:41:21.291Z,102487.84
2022-08-12T00:43:49.307Z,102491.22
2022-08-12T00:46:31.866Z,102487.91
2022-08-12T00:49:01.919Z,102476.53
2022-08-12T00:51:49.079Z,102491.31
2022-08-12T00:54:17.168Z,102493.28
2022-08-12T00:56:50.010Z,102497.63
2022-08-12T00:59:17.725Z,102491.59
2022-08-12T01:02:10.399Z,102490.56
2022-08-12T01:04:59.121Z,102466.28
2022-08-12T01:07:48.092Z,102498.63
2022-08-12T01:10:33.601Z,102495.13
2022-08-12T01:13:07.181Z,102508.50
2022-08-12T01:15:49.455Z,102480.56
2022-08-12T01:18:20.476Z,102505.91
2022-08-12T01:20:53.569Z,102504.22
2022-08-12T01:23:51.509Z,102506.16
2022-08-12T01:26:25.739Z,102502.72
2022-08-12T01:28:59.330Z,102504.53
2022-08-12T01:31:29.354Z,102499.25
2022-08-12T01:34:36.186Z,102496.63
2022-08-12T01:37:08.501Z,102488.72
2022-08-12T01:40:32.068Z,102493.34
2022-08-12T01:42:51.189Z,102501.34
2022-08-12T01:45:24.573Z,102493.53
2022-08-12T01:48:49.482Z,102492.63
2022-08-12T01:52:21.189Z,102490.13
2022-08-12T01:54:41.927Z,102487.59
2022-08-12T01:57:10.965Z,102492.03
2022-08-12T01:59:50.786Z,102476.28
2022-08-12T02:02:32.231Z,102492.13
2022-08-12T02:05:49.347Z,102493.13
2022-08-12T02:09:08.997Z,102492.34
2022-08-12T02:11:54.345Z,102483.69
2022-08-12T02:15:22.577Z,102496.88
2022-08-12T02:18:08.449Z,102483.69
2022-08-12T02:21:12.429Z,102484.59
2022-08-12T02:23:41.639Z,102480.25
2022-08-12T02:26:10.972Z,102482.06
2022-08-12T02:28:38.728Z,102484.84
2022-08-12T02:31:09.057Z,102463.06
2022-08-12T02:33:38.087Z,102464.72
2022-08-12T02:36:06.553Z,102479.66
2022-08-12T02:38:36.019Z,102470.03
2022-08-12T02:41:48.777Z,102468.19
2022-08-12T02:44:19.386Z,102467.38
2022-08-12T02:46:49.601Z,102456.94
2022-08-12T02:49:35.912Z,102472.88
2022-08-12T02:52:04.394Z,102447.59
2022-08-12T02:54:31.562Z,102454.56
2022-08-12T02:56:59.339Z,102454.53
2022-08-12T02:59:29.115Z,102454.53
2022-08-12T03:02:03.915Z,102467.72
2022-08-12T03:04:46.082Z,102463.41
2022-08-12T03:07:56.386Z,102462.63
2022-08-12T03:10:37.362Z,102463.59
2022-08-12T03:13:08.177Z,102456.53
2022-08-12T03:15:36.190Z,102447.00
2022-08-12T03:18:31.201Z,102454.91
2022-08-12T03:21:01.517Z,102452.34
2022-08-12T03:23:31.256Z,102439.34
2022-08-12T03:26:02.854Z,102463.16
2022-08-12T03:28:50.731Z,102451.84
2022-08-12T03:31:22.629Z,102454.31
2022-08-12T03:34:02.408Z,102455.25
2022-08-12T03:36:36.672Z,102451.63
2022-08-12T03:39:36.452Z,102439.41
2022-08-12T03:42:40.522Z,102443.66
2022-08-12T03:45:52.226Z,102443.78
2022-08-12T03:48:39.180Z,102441.94
2022-08-12T03:51:26.746Z,102434.25
2022-08-12T03:54:12.693Z,102449.94
2022-08-12T03:56:58.966Z,102453.50
2022-08-12T03:59:44.936Z,102449.94
2022-08-12T04:02:16.568Z,102455.25
2022-08-12T04:04:45.640Z,102461.28
2022-08-12T04:07:14.748Z,102459.53
2022-08-12T04:09:46.036Z,102466.53
2022-08-12T04:12:40.189Z,102457.78
2022-08-12T04:15:12.976Z,102460.41
2022-08-12T04:18:06.563Z,102444.41
2022-08-12T04:20:29.902Z,102460.06
2022-08-12T04:22:57.832Z,102455.50
2022-08-12T04:25:28.292Z,102449.03
2022-08-12T04:27:55.428Z,102469.00
2022-08-12T04:30:33.224Z,102467.09
2022-08-12T04:33:00.779Z,102459.91
2022-08-12T04:35:28.628Z,102468.72
2022-08-12T04:38:00.610Z,102467.75
2022-08-12T04:40:32.343Z,102475.50
2022-08-12T04:43:01.517Z,102482.06
2022-08-12T04:45:34.578Z,102483.22
2022-08-12T04:48:02.626Z,102473.72
2022-08-12T04:50:35.117Z,102481.22
2022-08-12T04:53:09.043Z,102480.91
2022-08-12T04:55:38.850Z,102478.03
2022-08-12T04:58:07.825Z,102466.56
2022-08-12T05:00:36.457Z,102480.69
2022-08-12T05:03:06.631Z,102483.63
2022-08-12T05:05:36.915Z,102475.28
2022-08-12T05:08:07.892Z,102479.84
2022-08-12T05:10:35.681Z,102479.28
2022-08-12T05:13:16.609Z,102478.06
2022-08-12T05:16:04.067Z,102485.78
2022-08-12T05:18:35.459Z,102477.53
2022-08-12T05:21:09.023Z,102485.19
2022-08-12T05:23:40.461Z,102490.31
2022-08-12T05:26:07.872Z,102470.59
2022-08-12T05:28:36.916Z,102485.59
2022-08-12T05:31:04.959Z,102471.41
2022-08-12T05:33:40.418Z,102473.16
2022-08-12T05:36:15.123Z,102482.13
2022-08-12T05:38:59.413Z,102473.97
2022-08-12T05:41:32.075Z,102474.78
2022-08-12T05:44:08.698Z,102472.09
2022-08-12T05:46:38.468Z,102473.16
2022-08-12T05:49:07.539Z,102466.94
2022-08-12T05:51:41.149Z,102469.53
2022-08-12T05:54:16.352Z,102464.38
2022-08-12T05:56:45.601Z,102475.31
2022-08-12T05:59:14.156Z,102458.03
2022-08-12T06:02:09.644Z,102475.72
2022-08-12T06:04:31.303Z,102479.56
2022-08-12T06:07:01.805Z,102470.75
2022-08-12T06:09:30.883Z,102468.19
2022-08-12T06:12:05.248Z,102484.91
2022-08-12T06:14:37.805Z,102481.19
2022-08-12T06:17:09.111Z,102480.19
2022-08-12T06:20:27.290Z,102475.44
2022-08-12T06:22:26.636Z,102477.75
2022-08-12T06:24:53.996Z,102460.53
2022-08-12T06:27:21.542Z,102472.31
2022-08-12T06:30:08.415Z,102471.78
2022-08-12T06:32:42.786Z,102473.72
2022-08-12T06:35:23.839Z,102472.19
2022-08-12T06:38:25.124Z,102475.00
2022-08-12T06:41:16.605Z,102470.78
2022-08-12T06:44:06.688Z,102467.59
2022-08-12T06:46:36.861Z,102479.44
2022-08-12T06:49:04.686Z,102474.59
2022-08-12T06:51:32.549Z,102475.09
2022-08-12T06:54:01.217Z,102471.47
2022-08-12T06:56:59.529Z,102455.38
2022-08-12T06:59:16.140Z,102470.28
2022-08-12T07:01:50.770Z,102471.72
2022-08-12T07:04:37.864Z,102472.34
2022-08-12T07:07:09.156Z,102467.44
2022-08-12T07:09:59.977Z,102462.53
2022-08-12T07:12:36.565Z,102471.09
2022-08-12T07:15:04.317Z,102468.06
2022-08-12T07:17:37.480Z,102466.75
2022-08-12T07:20:29.678Z,102464.72
2022-08-12T07:23:00.471Z,102450.56
2022-08-12T07:25:37.577Z,102459.94
2022-08-12T07:28:17.223Z,102459.06
2022-08-12T07:30:49.188Z,102464.38
2022-08-12T07:33:19.496Z,102459.59
2022-08-12T07:35:48.248Z,102463.59
2022-08-12T07:38:43.716Z,102454.28
2022-08-12T07:41:22.286Z,102468.97
2022-08-12T07:44:04.488Z,102456.22
2022-08-12T07:46:50.173Z,102466.28
2022-08-12T07:49:17.249Z,102459.81
2022-08-12T07:51:45.224Z,102453.41
2022-08-12T07:54:13.783Z,102444.59
2022-08-12T07:56:42.432Z,102458.28
2022-08-12T07:59:10.266Z,102452.22
2022-08-12T08:01:38.247Z,102456.63
2022-08-12T08:04:25.606Z,102463.38
2022-08-12T08:06:53.899Z,102460.34
2022-08-12T08:09:23.573Z,102442.22
2022-08-12T08:12:19.006Z,102460.19
2022-08-12T08:14:49.843Z,102453.41
2022-08-12T08:17:17.490Z,102451.13
2022-08-12T08:20:03.779Z,102461.09
2022-08-12T08:22:50.316Z,102458.06
2022-08-12T08:25:35.305Z,102443.66
2022-08-12T08:28:13.730Z,102445.03
2022-08-12T08:30:46.066Z,102461.56
2022-08-12T08:33:22.999Z,102455.16
2022-08-12T08:35:54.408Z,102457.75
2022-08-12T08:38:31.704Z,102451.44
2022-08-12T08:42:17.639Z,102452.78
2022-08-12T08:44:06.722Z,102455.38
2022-08-12T08:46:37.893Z,102445.47
2022-08-12T08:49:15.135Z,102448.25
2022-08-12T08:51:45.130Z,102449.78
2022-08-12T08:54:12.819Z,102451.94
2022-08-12T08:56:44.709Z,102447.88
2022-08-12T08:59:13.320Z,102448.03
2022-08-12T09:01:44.508Z,102446.72
2022-08-12T09:05:07.237Z,102446.72
2022-08-12T09:07:00.726Z,102448.66
2022-08-12T09:10:01.605Z,102442.78
2022-08-12T09:15:41.880Z,102432.06
2022-08-12T09:18:11.003Z,102426.50
2022-08-12T09:24:00.489Z,102435.75
2022-08-12T09:26:16.027Z,102438.25
2022-08-12T09:32:04.311Z,102426.88
2022-08-12T09:34:28.256Z,102422.91
2022-08-12T09:37:00.566Z,102430.41
2022-08-12T09:39:57.955Z,102418.00
2022-08-12T09:42:43.338Z,102413.88
2022-08-12T09:46:11.551Z,102424.13
2022-08-12T09:48:20.486Z,102417.69
2022-08-12T09:50:55.155Z,102420.09
2022-08-12T09:53:35.914Z,102419.78
2022-08-12T09:56:58.682Z,102416.44
2022-08-12T09:59:00.551Z,102414.09
2022-08-12T10:01:34.732Z,102422.13
2022-08-12T10:04:19.561Z,102397.00
2022-08-12T10:06:54.148Z,102403.94
2022-08-12T10:09:28.511Z,102397.88
2022-08-12T10:12:32.970Z,102389.16
2022-08-12T10:15:02.462Z,102392.41
2022-08-12T10:17:31.071Z,102376.25
2022-08-12T10:19:59.463Z,102399.56
2022-08-12T10:22:39.328Z,102382.72
2022-08-12T10:26:34.099Z,102386.19
2022-08-12T10:28:39.070Z,102388.03
2022-08-12T10:31:06.734Z,102390.38
2022-08-12T10:34:05.135Z,102377.97
2022-08-12T10:36:36.410Z,102376.50
2022-08-12T10:40:00.262Z,102376.25
2022-08-12T10:42:49.948Z,102373.47
2022-08-12T10:45:18.315Z,102366.22
2022-08-12T10:48:19.638Z,102349.94
2022-08-12T10:51:00.997Z,102364.81
2022-08-12T10:53:45.805Z,102363.09
2022-08-12T10:56:11.731Z,102362.22
2022-08-12T10:58:39.921Z,102362.88
2022-08-12T11:01:49.822Z,102350.94
2022-08-12T11:04:27.575Z,102348.63
2022-08-12T11:07:09.591Z,102347.13
2022-08-12T11:10:00.697Z,102354.25
2022-08-12T11:12:55.110Z,102337.31
2022-08-12T11:15:32.762Z,102341.09
2022-08-12T11:18:12.233Z,102327.38
2022-08-12T11:20:48.511Z,102319.84
2022-08-12T11:23:25.601Z,102333.66
2022-08-12T11:26:07.943Z,102323.47
2022-08-12T11:28:38.073Z,102333.34
2022-08-12T11:31:12.394Z,102340.03
2022-08-12T11:34:06.720Z,102327.06
2022-08-12T11:36:31.252Z,102328.81
2022-08-12T11:39:04.502Z,102321.88
2022-08-12T11:41:34.699Z,102321.00
2022-08-12T11:44:35.884Z,102315.25
2022-08-12T11:46:54.484Z,102320.53
2022-08-12T11:49:31.380Z,102283.31
2022-08-12T11:52:02.240Z,102313.41
2022-08-12T11:54:31.052Z,102303.88
2022-08-12T11:57:02.393Z,102318.81
2022-08-12T12:02:21.338Z,102300.31
2022-08-12T12:04:52.654Z,102314.66
2022-08-12T12:08:35.968Z,102265.09
2022-08-12T12:10:12.721Z,102307.72
2022-08-12T12:12:41.579Z,102296.94
2022-08-12T12:15:24.820Z,102301.72
2022-08-12T12:17:57.681Z,102274.47
2022-08-12T12:20:26.092Z,102293.47
2022-08-12T12:22:56.610Z,102294.44
2022-08-12T12:25:59.410Z,102266.81
2022-08-12T12:28:36.606Z,102300.16
2022-08-12T12:31:04.156Z,102240.22
2022-08-12T12:33:46.168Z,102267.78
2022-08-12T12:36:24.138Z,102296.59
2022-08-12T12:38:58.050Z,102278.47
2022-08-12T12:42:41.685Z,102143.94
2022-08-12T12:44:30.296Z,102272.59
2022-08-12T12:47:03.329Z,102268.72
2022-08-12T12:49:32.394Z,102236.13
2022-08-12T12:52:19.324Z,102293.09
2022-08-12T12:54:52.678Z,102271.06
2022-08-12T12:57:21.617Z,102282.28
2022-08-12T13:00:16.686Z,102286.84
2022-08-12T13:02:53.810Z,102282.78
2022-08-12T13:05:42.639Z,102283.25
2022-08-12T13:08:35.543Z,102286.66
2022-08-12T13:11:07.009Z,102286.03
2022-08-12T13:14:09.204Z,102268.28
2022-08-12T13:16:26.663Z,102252.19
2022-08-12T13:18:54.633Z,102254.69
2022-08-12T13:21:33.496Z,102286.41
2022-08-12T13:24:10.514Z,102280.34
2022-08-12T13:26:40.299Z,102239.97
2022-08-12T13:29:11.096Z,102266.44
2022-08-12T13:32:18.618Z,102269.38
2022-08-12T13:34:34.798Z,102243.78
2022-08-12T13:37:09.220Z,102271.81
2022-08-12T13:39:39.144Z,102269.38
2022-08-12T13:42:14.344Z,102258.44
2022-08-12T13:44:42.599Z,102268.91
2022-08-12T13:47:18.582Z,102263.09
2022-08-12T13:49:55.268Z,102252.72
2022-08-12T13:52:25.633Z,102239.56
2022-08-12T13:54:56.135Z,102245.19
2022-08-12T13:57:25.590Z,102252.97
2022-08-12T13:59:55.398Z,102249.94
2022-08-12T14:02:32.307Z,102230.72
2022-08-12T14:04:59.317Z,102232.75
2022-08-12T14:07:27.488Z,102245.28
2022-08-12T14:10:16.584Z,102256.16
2022-08-12T14:12:54.139Z,102246.19
2022-08-12T14:15:37.027Z,102245.53
2022-08-12T14:18:19.761Z,102256.78
2022-08-12T14:21:01.710Z,102231.41
2022-08-12T14:24:05.233Z,102251.16
2022-08-12T14:26:24.776Z,102254.19
2022-08-12T14:28:57.767Z,102245.53
2022-08-12T14:31:31.745Z,102243.94
2022-08-12T14:33:59.878Z,102242.53
2022-08-12T14:36:27.122Z,102228.09
2022-08-12T14:38:56.007Z,102229.84
2022-08-12T14:41:36.916Z,102235.69
2022-08-12T14:44:58.217Z,102234.41
2022-08-12T14:47:00.904Z,102235.34
2022-08-12T14:50:34.109Z,102237.00
2022-08-12T14:53:13.468Z,102242.81
2022-08-12T14:58:01.779Z,102234.47
2022-08-12T15:00:50.949Z,102236.84
2022-08-12T15:03:52.503Z,102227.47
2022-08-12T15:06:44.021Z,102226.38
2022-08-12T15:09:08.206Z,102215.56
2022-08-12T15:11:54.523Z,102223.78
2022-08-12T15:14:30.339Z,102209.41
2022-08-12T15:17:00.257Z,102208.34
2022-08-12T15:20:28.620Z,102212.22
2022-08-12T15:22:35.832Z,102220.41
2022-08-12T15:25:07.896Z,102209.63
2022-08-12T15:28:20.729Z,102211.34
2022-08-12T15:30:31.343Z,102201.00
2022-08-12T15:32:59.167Z,102207.59
2022-08-12T15:35:31.464Z,102190.22
2022-08-12T15:38:19.700Z,102152.72
2022-08-12T15:40:51.248Z,102192.63
2022-08-12T15:43:51.199Z,102182.34
2022-08-12T15:46:15.604Z,102190.44
2022-08-12T15:48:46.798Z,102193.34
2022-08-12T15:51:59.040Z,102190.44
2022-08-12T15:54:33.251Z,102175.66
2022-08-12T15:57:08.347Z,102183.53
2022-08-12T15:59:59.934Z,102186.97
2022-08-12T16:02:29.792Z,102189.78
2022-08-12T16:04:58.501Z,102184.19
2022-08-12T16:07:30.188Z,102196.38
2022-08-12T16:10:05.886Z,102117.22
2022-08-12T16:12:43.203Z,102161.53
2022-08-12T16:15:14.752Z,102173.63
2022-08-12T16:18:18.246Z,102170.81
2022-08-12T16:20:46.695Z,102170.50
2022-08-12T16:23:26.846Z,102165.84
2022-08-12T16:26:15.438Z,102149.34
2022-08-12T16:28:48.468Z,102160.66
2022-08-12T16:31:22.780Z,102165.84
2022-08-12T16:33:58.706Z,102167.78
2022-08-12T16:36:29.739Z,102165.34
2022-08-12T16:39:01.572Z,102165.59
2022-08-12T16:41:38.149Z,102160.66
2022-08-12T16:44:08.956Z,102162.25
2022-08-12T16:46:38.098Z,102153.66
2022-08-12T16:49:09.188Z,102155.47
2022-08-12T16:51:46.813Z,102147.50
2022-08-12T16:54:26.630Z,102150.19
2022-08-12T16:57:09.464Z,102148.25
2022-08-12T16:59:53.593Z,102141.03
2022-08-12T17:02:31.546Z,102138.22
2022-08-12T17:05:06.384Z,102144.50
2022-08-12T17:07:47.215Z,102148.91
2022-08-12T17:10:36.599Z,102133.50
2022-08-12T17:13:09.868Z,102142.97
2022-08-12T17:15:57.885Z,102149.88
2022-08-12T17:18:44.255Z,102141.03
2022-08-12T17:21:41.633Z,102141.91
2022-08-12T17:24:22.333Z,102139.50
2022-08-12T17:26:54.008Z,102137.91
2022-08-12T17:29:32.368Z,102137.25
2022-08-12T17:32:11.029Z,102136.28
2022-08-12T17:34:57.894Z,102134.56
2022-08-12T17:37:27.577Z,102131.09
2022-08-12T17:40:15.439Z,102127.53
2022-08-12T17:42:49.464Z,102138.56
2022-08-12T17:45:19.590Z,102136.94
2022-08-12T17:48:04.964Z,102132.63
2022-08-12T17:50:36.752Z,102143.59
2022-08-12T17:53:10.837Z,102142.00
2022-08-12T17:55:47.634Z,102141.34
2022-08-12T17:58:37.887Z,102142.31
2022-08-12T18:01:11.127Z,102148.56
2022-08-12T18:03:57.505Z,102139.19
2022-08-12T18:06:28.541Z,102154.38
2022-08-12T18:08:59.332Z,102144.88
2022-08-12T18:12:05.036Z,102162.00
2022-08-12T18:14:37.226Z,102158.84
2022-08-12T18:17:08.743Z,102164.66
2022-08-12T18:20:03.863Z,102151.06
2022-08-12T18:22:32.734Z,102182.59
2022-08-12T18:26:12.211Z,102171.28
2022-08-12T18:28:16.933Z,102173.59
2022-08-12T18:30:53.322Z,102169.59
2022-08-12T18:33:26.915Z,102178.09
2022-08-12T18:35:55.605Z,102179.34
2022-08-12T18:38:26.844Z,102180.63
2022-08-12T18:41:21.663Z,102183.88
2022-08-12T18:43:59.809Z,102185.22
2022-08-12T18:46:55.909Z,102183.91
2022-08-12T18:49:33.378Z,102190.56
2022-08-12T18:52:05.733Z,102189.09
2022-08-12T18:54:49.390Z,102188.91
2022-08-12T18:58:07.204Z,102189.03
2022-08-12T19:00:21.205Z,102196.59
2022-08-12T19:02:53.340Z,102193.34
2022-08-12T19:05:24.800Z,102195.41
2022-08-12T19:08:12.897Z,102196.78
2022-08-12T19:10:50.287Z,102205.00
2022-08-12T19:13:42.924Z,102202.63
2022-08-12T19:16:11.384Z,102205.78
2022-08-12T19:18:40.971Z,102211.53
2022-08-12T19:21:15.911Z,102213.66
2022-08-12T19:24:06.154Z,102215.72
2022-08-12T19:26:35.812Z,102221.56
2022-08-12T19:29:07.457Z,102221.31
2022-08-12T19:31:44.755Z,102221.19
2022-08-12T19:35:32.899Z,102217.06
2022-08-12T19:38:04.207Z,102214.75
2022-08-12T19:40:32.351Z,102220.47
2022-08-12T19:43:19.431Z,102227.06
2022-08-12T19:45:53.164Z,102213.09
2022-08-12T19:48:27.672Z,102218.59
2022-08-12T19:51:09.020Z,102221.69
2022-08-12T19:53:57.421Z,102219.13
2022-08-12T19:56:29.781Z,102221.13
2022-08-12T19:59:18.694Z,102220.50
2022-08-12T20:02:02.918Z,102217.25
2022-08-12T20:04:37.536Z,102218.38
2022-08-12T20:07:23.558Z,102209.66
2022-08-12T20:09:54.108Z,102215.19
2022-08-12T20:12:31.822Z,102226.94
2022-08-12T20:15:09.154Z,102232.50
2022-08-12T20:17:51.067Z,102234.41
2022-08-12T20:20:27.478Z,102231.97
2022-08-12T20:22:57.689Z,102234.75
2022-08-12T20:25:51.899Z,102236.66
2022-08-12T20:28:14.951Z,102233.38
2022-08-12T20:30:59.269Z,102232.53
2022-08-12T20:33:32.636Z,102237.16
2022-08-12T20:36:40.606Z,102238.19
2022-08-12T20:39:05.986Z,102235.75
2022-08-12T20:41:58.580Z,102239.38
2022-08-12T20:44:26.794Z,102235.16
2022-08-12T20:46:58.320Z,102236.25
2022-08-12T20:49:25.762Z,102235.47
2022-08-12T20:51:59.483Z,102248.06
2022-08-12T20:54:33.846Z,102246.31
2022-08-12T20:57:09.728Z,102238.66
2022-08-12T20:59:39.922Z,102225.69
2022-08-12T21:02:24.471Z,102235.22
2022-08-12T21:05:19.909Z,102237.13
2022-08-12T21:07:52.131Z,102226.91
2022-08-12T21:10:26.467Z,102236.56
2022-08-12T21:12:54.048Z,102240.22
2022-08-12T21:15:30.142Z,102225.47
2022-08-12T21:18:27.176Z,102236.03
2022-08-12T21:20:59.117Z,102229.28
2022-08-12T21:23:31.006Z,102225.97
2022-08-12T21:26:11.166Z,102237.50
2022-08-12T21:28:39.431Z,102236.03
2022-08-12T21:32:34.634Z,102239.31
2022-08-12T21:34:06.468Z,102242.53
2022-08-12T21:36:43.080Z,102246.03
2022-08-12T21:39:35.158Z,102246.03
2022-08-12T21:42:07.104Z,102244.34
2022-08-12T21:45:47.899Z,102240.97
2022-08-12T21:47:25.166Z,102239.38
2022-08-12T21:50:03.721Z,102248.22
2022-08-12T21:52:43.447Z,102243.97
2022-08-12T21:55:19.603Z,102234.66
2022-08-12T21:57:53.347Z,102242.56
2022-08-12T22:00:33.189Z,102242.56
2022-08-12T22:04:04.396Z,102245.38
2022-08-12T22:06:26.258Z,102248.31
2022-08-12T22:09:16.621Z,102252.03
2022-08-12T22:11:49.192Z,102246.75
2022-08-12T22:14:24.815Z,102239.09
2022-08-12T22:16:58.221Z,102246.19
2022-08-12T22:19:26.990Z,102251.88
2022-08-12T22:21:58.384Z,102253.44
2022-08-12T22:24:29.880Z,102237.13
2022-08-12T22:27:28.279Z,102249.22
2022-08-12T22:30:17.018Z,102247.84
2022-08-12T22:32:55.099Z,102262.03
2022-08-12T22:35:55.237Z,102255.97
2022-08-12T22:38:25.973Z,102223.53
2022-08-12T22:41:01.653Z,102261.47
2022-08-12T22:43:59.878Z,102255.25
2022-08-12T22:46:32.838Z,102137.56
2022-08-12T22:48:59.918Z,102237.91
2022-08-12T22:51:57.791Z,102225.75
2022-08-12T22:54:36.229Z,102245.72
2022-08-12T22:57:11.975Z,102245.72
2022-08-12T22:59:51.264Z,102240.53
2022-08-12T23:02:28.577Z,102240.53
2022-08-12T23:04:57.640Z,102238.91
2022-08-12T23:07:24.936Z,102242.25
2022-08-12T23:09:54.725Z,102246.81
2022-08-12T23:12:49.064Z,102240.78
2022-08-12T23:15:16.481Z,102246.13
2022-08-12T23:17:45.953Z,102244.72
2022-08-12T23:20:14.952Z,102251.66
2022-08-12T23:22:43.840Z,102249.00
2022-08-12T23:25:23.207Z,102253.63
2022-08-12T23:28:31.025Z,102257.31
2022-08-12T23:31:04.728Z,102256.59
2022-08-12T23:34:01.493Z,102255.88
2022-08-12T23:36:39.134Z,102258.69
2022-08-12T23:40:13.157Z,102252.56
2022-08-12T23:42:17.420Z,102243.97
2022-08-12T23:44:52.586Z,102250.19
2022-08-12T23:47:22.853Z,102239.84
2022-08-12T23:49:57.025Z,102248.63
2022-08-12T23:52:34.478Z,102236.44
2022-08-12T23:55:24.927Z,102236.63
2022-08-12T23:58:21.539Z,102237.50
